(°C)
14°
14°
14°
14°
15°
16°
16°
(°C)
14°
14°
15°
15°
15°
16°
17°
NNO
NNO
NO
NO
O
OSO
SO
(km/h)
3-8
3-8
2-7
2-7
3-6
3-6
4-7
(mm)
0
0
0
0
0
0
0
(%)
0
0
0
0
0
0
0

Elevação do sol

/ -29.8°
sun-icon
UV 9
05:42
19:48
Minguante côncava (303°)
03:10
15:34

METAR para San Diego (KSAN)

Hora Condições Temperatura/
Ponto de condensação
Vento Visibilidade Tempo Nuvens Pressão Mudança Bruto
VFR 13.9°C / 12.2°C variable 0kt >10km - Few Clouds 1200ft 1011 - KSAN 250851Z 00000KT 8SM FEW012 14/12 A2987 RMK AO2 SLP114 T01390122 58005
VFR 14.4°C / 12.2°C 330º 3kt >10km - Few Clouds 1200ft 1011 - KSAN 250751Z 33003KT 9SM FEW012 14/12 A2988 RMK AO2 SLP117 T01440122 401780144
VFR 14.4°C / 12.2°C 350º 4kt >10km - Few Clouds 1200ft 1011 - KSAN 250651Z 35004KT 9SM FEW012 14/12 A2988 RMK AO2 SLP119 T01440122
VFR 15°C / 12.2°C 310º 3kt >10km - Scattered Clouds 1200ft 1011 - KSAN 250551Z 31003KT 9SM SCT012 15/12 A2988 RMK AO2 SLP119 T01500122 10167 20144 53010
VFR 15°C / 12.2°C 300º 3kt >10km - Scattered Clouds 1400ft 1011 - KSAN 250451Z 30003KT 9SM SCT014 15/12 A2988 RMK AO2 SLP116 T01500122
VFR 15°C / 12.2°C 300º 4kt >10km - Scattered Clouds 1500ft - KSAN 250440Z 30004KT 9SM SCT015 15/12 A2987 RMK AO2 T01500122
MVFR 15.6°C / 12.2°C 300º 5kt >10km - Broken Clouds 1500ft 1011 - KSAN 250351Z 30005KT 9SM BKN015 16/12 A2986 RMK AO2 SLP111 T01560122
MVFR 16.1°C / 12.2°C 230º 4kt >10km - Broken Clouds 1600ft 1010 - KSAN 250251Z 23004KT 8SM BKN016 16/12 A2985 RMK AO2 SLP109 T01610122 53002
MVFR 16.1°C / 12.2°C variable 5kt >10km - Broken Clouds 1700ft 1010 - KSAN 250151Z VRB05KT 9SM BKN017 16/12 A2985 RMK AO2 SLP108 T01610122
MVFR 16.1°C / 12.2°C 230º 3kt >10km - Broken Clouds 1700ft 1010 - KSAN 250051Z 23003KT 9SM BKN017 16/12 A2984 RMK AO2 SLP106 T01610122
MVFR 16.7°C / 12.2°C 220º 8kt >10km - Broken Clouds 1700ft 1010 - KSAN 242351Z 22008KT 10SM BKN017 17/12 A2985 RMK AO2 SLP107 T01670122 10178 20161 56004
MVFR 17.2°C / 12.2°C 210º 8kt >10km - Broken Clouds 1800ft 1010 - KSAN 242251Z 21008KT 10SM BKN018 17/12 A2985 RMK AO2 SLP108 T01720122
MVFR 17.2°C / 12.8°C 250º 6kt >10km - Broken Clouds 1700ft 1010 - KSAN 242151Z 25006KT 10SM BKN017 17/13 A2985 RMK AO2 SLP109 T01720128
MVFR 17.8°C / 12.8°C 290º variable 260º to 320º 7kt >10km - Overcast 1500ft 1011 - KSAN 242051Z 29007KT 260V320 10SM OVC015 18/13 A2986 RMK AO2 SLP110 T01780128 58006
MVFR 16.7°C / 12.8°C 270º 7kt >10km - Overcast 1400ft 1011 - KSAN 241951Z 27007KT 9SM OVC014 17/13 A2988 RMK AO2 SLP116 T01670128
MVFR 16.7°C / 12.8°C 260º 8kt >10km - Overcast 1400ft 1011 - KSAN 241851Z 26008KT 8SM OVC014 17/13 A2988 RMK AO2 SLP116 T01670128
MVFR 16.1°C / 12.8°C 270º 6kt >10km - Overcast 1400ft 1011 - KSAN 241751Z 27006KT 8SM OVC014 16/13 A2988 RMK AO2 SLP117 T01610128 10167 20150 51003
MVFR 16.1°C / 12.8°C 240º 6kt >10km - Overcast 1400ft - KSAN 241742Z 24006KT 8SM OVC014 16/13 A2988 RMK AO2 T01610128
MVFR 16.1°C / 12.2°C variable 0kt >10km - Overcast 1500ft 1011 - KSAN 241651Z 00000KT 8SM OVC015 16/12 A2987 RMK AO2 SLP115 T01610122
MVFR 16.1°C / 12.2°C 250º 3kt >10km - Overcast 1500ft - KSAN 241641Z 25003KT 8SM OVC015 16/12 A2987 RMK AO2 T01610122
MVFR 16.1°C / 12.2°C variable 3kt >10km - Overcast 1400ft 1011 - KSAN 241551Z VRB03KT 9SM OVC014 16/12 A2988 RMK AO2 SLP117 T01610122
MVFR 15°C / 12.2°C variable 0kt >10km - Overcast 1400ft 1011 - KSAN 241451Z 00000KT 9SM OVC014 15/12 A2987 RMK AO2 SLP113 T01500122 53007
MVFR 15°C / 12.2°C 290º 4kt >10km - Overcast 1400ft 1011 - KSAN 241351Z 29004KT 9SM OVC014 15/12 A2986 RMK AO2 SLP110 T01500122
MVFR 15°C / 12.2°C 280º 4kt >10km - Overcast 1300ft 1010 - KSAN 241251Z 28004KT 10SM OVC013 15/12 A2985 RMK AO2 SLP107 T01500122

VFR

13.9°C / 12.2°C

[Mais]
Vento variable 0kt
Visibilidade >10km
Tempo -
Nuvens Few Clouds 1200ft
Pressão 1011
Mudança -
Bruto KSAN 250851Z 00000KT 8SM FEW012 14/12 A2987 RMK AO2 SLP114 T01390122 58005

VFR

14.4°C / 12.2°C

[Mais]
Vento 330º 3kt
Visibilidade >10km
Tempo -
Nuvens Few Clouds 1200ft
Pressão 1011
Mudança -
Bruto KSAN 250751Z 33003KT 9SM FEW012 14/12 A2988 RMK AO2 SLP117 T01440122 401780144

VFR

14.4°C / 12.2°C

[Mais]
Vento 350º 4kt
Visibilidade >10km
Tempo -
Nuvens Few Clouds 1200ft
Pressão 1011
Mudança -
Bruto KSAN 250651Z 35004KT 9SM FEW012 14/12 A2988 RMK AO2 SLP119 T01440122

VFR

15°C / 12.2°C

[Mais]
Vento 310º 3kt
Visibilidade >10km
Tempo -
Nuvens Scattered Clouds 1200ft
Pressão 1011
Mudança -
Bruto KSAN 250551Z 31003KT 9SM SCT012 15/12 A2988 RMK AO2 SLP119 T01500122 10167 20144 53010

VFR

15°C / 12.2°C

[Mais]
Vento 300º 3kt
Visibilidade >10km
Tempo -
Nuvens Scattered Clouds 1400ft
Pressão 1011
Mudança -
Bruto KSAN 250451Z 30003KT 9SM SCT014 15/12 A2988 RMK AO2 SLP116 T01500122

VFR

15°C / 12.2°C

[Mais]
Vento 300º 4kt
Visibilidade >10km
Tempo -
Nuvens Scattered Clouds 1500ft
Pressão
Mudança -
Bruto KSAN 250440Z 30004KT 9SM SCT015 15/12 A2987 RMK AO2 T01500122

MVFR

15.6°C / 12.2°C

[Mais]
Vento 300º 5kt
Visibilidade >10km
Tempo -
Nuvens Broken Clouds 1500ft
Pressão 1011
Mudança -
Bruto KSAN 250351Z 30005KT 9SM BKN015 16/12 A2986 RMK AO2 SLP111 T01560122

MVFR

16.1°C / 12.2°C

[Mais]
Vento 230º 4kt
Visibilidade >10km
Tempo -
Nuvens Broken Clouds 1600ft
Pressão 1010
Mudança -
Bruto KSAN 250251Z 23004KT 8SM BKN016 16/12 A2985 RMK AO2 SLP109 T01610122 53002

MVFR

16.1°C / 12.2°C

[Mais]
Vento variable 5kt
Visibilidade >10km
Tempo -
Nuvens Broken Clouds 1700ft
Pressão 1010
Mudança -
Bruto KSAN 250151Z VRB05KT 9SM BKN017 16/12 A2985 RMK AO2 SLP108 T01610122

MVFR

16.1°C / 12.2°C

[Mais]
Vento 230º 3kt
Visibilidade >10km
Tempo -
Nuvens Broken Clouds 1700ft
Pressão 1010
Mudança -
Bruto KSAN 250051Z 23003KT 9SM BKN017 16/12 A2984 RMK AO2 SLP106 T01610122

MVFR

16.7°C / 12.2°C

[Mais]
Vento 220º 8kt
Visibilidade >10km
Tempo -
Nuvens Broken Clouds 1700ft
Pressão 1010
Mudança -
Bruto KSAN 242351Z 22008KT 10SM BKN017 17/12 A2985 RMK AO2 SLP107 T01670122 10178 20161 56004

MVFR

17.2°C / 12.2°C

[Mais]
Vento 210º 8kt
Visibilidade >10km
Tempo -
Nuvens Broken Clouds 1800ft
Pressão 1010
Mudança -
Bruto KSAN 242251Z 21008KT 10SM BKN018 17/12 A2985 RMK AO2 SLP108 T01720122

MVFR

17.2°C / 12.8°C

[Mais]
Vento 250º 6kt
Visibilidade >10km
Tempo -
Nuvens Broken Clouds 1700ft
Pressão 1010
Mudança -
Bruto KSAN 242151Z 25006KT 10SM BKN017 17/13 A2985 RMK AO2 SLP109 T01720128

MVFR

17.8°C / 12.8°C

[Mais]
Vento 290º variable 260º to 320º 7kt
Visibilidade >10km
Tempo -
Nuvens Overcast 1500ft
Pressão 1011
Mudança -
Bruto KSAN 242051Z 29007KT 260V320 10SM OVC015 18/13 A2986 RMK AO2 SLP110 T01780128 58006

MVFR

16.7°C / 12.8°C

[Mais]
Vento 270º 7kt
Visibilidade >10km
Tempo -
Nuvens Overcast 1400ft
Pressão 1011
Mudança -
Bruto KSAN 241951Z 27007KT 9SM OVC014 17/13 A2988 RMK AO2 SLP116 T01670128

MVFR

16.7°C / 12.8°C

[Mais]
Vento 260º 8kt
Visibilidade >10km
Tempo -
Nuvens Overcast 1400ft
Pressão 1011
Mudança -
Bruto KSAN 241851Z 26008KT 8SM OVC014 17/13 A2988 RMK AO2 SLP116 T01670128

MVFR

16.1°C / 12.8°C

[Mais]
Vento 270º 6kt
Visibilidade >10km
Tempo -
Nuvens Overcast 1400ft
Pressão 1011
Mudança -
Bruto KSAN 241751Z 27006KT 8SM OVC014 16/13 A2988 RMK AO2 SLP117 T01610128 10167 20150 51003

MVFR

16.1°C / 12.8°C

[Mais]
Vento 240º 6kt
Visibilidade >10km
Tempo -
Nuvens Overcast 1400ft
Pressão
Mudança -
Bruto KSAN 241742Z 24006KT 8SM OVC014 16/13 A2988 RMK AO2 T01610128

MVFR

16.1°C / 12.2°C

[Mais]
Vento variable 0kt
Visibilidade >10km
Tempo -
Nuvens Overcast 1500ft
Pressão 1011
Mudança -
Bruto KSAN 241651Z 00000KT 8SM OVC015 16/12 A2987 RMK AO2 SLP115 T01610122

MVFR

16.1°C / 12.2°C

[Mais]
Vento 250º 3kt
Visibilidade >10km
Tempo -
Nuvens Overcast 1500ft
Pressão
Mudança -
Bruto KSAN 241641Z 25003KT 8SM OVC015 16/12 A2987 RMK AO2 T01610122

MVFR

16.1°C / 12.2°C

[Mais]
Vento variable 3kt
Visibilidade >10km
Tempo -
Nuvens Overcast 1400ft
Pressão 1011
Mudança -
Bruto KSAN 241551Z VRB03KT 9SM OVC014 16/12 A2988 RMK AO2 SLP117 T01610122

MVFR

15°C / 12.2°C

[Mais]
Vento variable 0kt
Visibilidade >10km
Tempo -
Nuvens Overcast 1400ft
Pressão 1011
Mudança -
Bruto KSAN 241451Z 00000KT 9SM OVC014 15/12 A2987 RMK AO2 SLP113 T01500122 53007

MVFR

15°C / 12.2°C

[Mais]
Vento 290º 4kt
Visibilidade >10km
Tempo -
Nuvens Overcast 1400ft
Pressão 1011
Mudança -
Bruto KSAN 241351Z 29004KT 9SM OVC014 15/12 A2986 RMK AO2 SLP110 T01500122

MVFR

15°C / 12.2°C

[Mais]
Vento 280º 4kt
Visibilidade >10km
Tempo -
Nuvens Overcast 1300ft
Pressão 1010
Mudança -
Bruto KSAN 241251Z 28004KT 10SM OVC013 15/12 A2985 RMK AO2 SLP107 T01500122

TAF para San Diego (KSAN)

From till


From till Wind variable 3kt. Visibility 10km or more. Scattered Clouds 1200ft.
From till Wind variable 3kt. Visibility 10km or more. Overcast 1200ft.
From till Wind 240º 8kt. Visibility 10km or more. Scattered Clouds 1500ft.
From till Wind variable 4kt. Visibility 10km or more. Broken Clouds 1000ft.
From till Wind variable 4kt. Visibility 6400m. Mist . Overcast 800ft.

Bruto: KSAN 250855Z 2509/2612 VRB03KT P6SM SCT012 FM251100 VRB03KT P6SM OVC012 FM252000 24008KT P6SM SCT015 FM260200 VRB04KT P6SM BKN010 FM261000 VRB04KT 4SM BR OVC008

Radar e precipitação nowcast para San Diego

Chuvisco
Leve
Moderado
Forte
Muito forte
Granizo

O marcador do lugar é colocado em San Diego. Esta animação mostra o radar de precipitação para a última hora, assim como a 1h previsão. A queda de neve pode ser invisível para o radar. A intensidade da precipitação é codificada por cores, variando do azul claro ao laranja.

Imagens de satélite atuais para San Diego, EUA

O marcador de lugar é colocado em San Diego. [Mais]

A imagem de satélite em tempo real combina luz visível durante o dia com radiação infravermelha durante a noite. À noite, a imagem não é escura, pois a radiação infravermelha pode detectar diferenças de temperatura. Infelizmente, nuvens baixas e neblina são difíceis de distinguir das temperaturas do solo e, portanto, podem ser quase invisíveis durante a noite. As imagens de satélite Meteosat para a Europa são atualizadas em tempo real a cada 5 minutos. GOES-16/GOES-17 ( América do Norte e do Sul) e Himawari (Ásia) são atualizadas a cada 10 minutos.

Voltar ao início